Map

Track Data

SID SEASON NUMBER BASIN SUBBASIN NAME ISO_TIME NATURE LAT LON WMO_WIND WMO_PRES WMO_AGENCY TRACK_TYPE DIST2LAND LANDFALL IFLAG USA_AGENCY USA_ATCF_ID USA_LAT USA_LON USA_RECORD USA_STATUS USA_WIND USA_PRES USA_SSHS USA_R34_NE USA_R34_SE USA_R34_SW USA_R34_NW USA_R50_NE USA_R50_SE USA_R50_SW USA_R50_NW USA_R64_NE USA_R64_SE USA_R64_SW USA_R64_NW USA_POCI USA_ROCI USA_RMW USA_EYE TOKYO_LAT TOKYO_LON TOKYO_GRADE TOKYO_WIND TOKYO_PRES TOKYO_R50_DIR TOKYO_R50_LONG TOKYO_R50_SHORT TOKYO_R30_DIR TOKYO_R30_LONG TOKYO_R30_SHORT TOKYO_LAND CMA_LAT CMA_LON CMA_CAT CMA_WIND CMA_PRES HKO_LAT HKO_LON HKO_CAT HKO_WIND HKO_PRES NEWDELHI_LAT NEWDELHI_LON NEWDELHI_GRADE NEWDELHI_WIND NEWDELHI_PRES NEWDELHI_CI NEWDELHI_DP NEWDELHI_POCI REUNION_LAT REUNION_LON REUNION_TYPE REUNION_WIND REUNION_PRES REUNION_TNUM REUNION_CI REUNION_RMW REUNION_R34_NE REUNION_R34_SE REUNION_R34_SW REUNION_R34_NW REUNION_R50_NE REUNION_R50_SE REUNION_R50_SW REUNION_R50_NW REUNION_R64_NE REUNION_R64_SE REUNION_R64_SW REUNION_R64_NW BOM_LAT BOM_LON BOM_TYPE BOM_WIND BOM_PRES BOM_TNUM BOM_CI BOM_RMW BOM_R34_NE BOM_R34_SE BOM_R34_SW BOM_R34_NW BOM_R50_NE BOM_R50_SE BOM_R50_SW BOM_R50_NW BOM_R64_NE BOM_R64_SE BOM_R64_SW BOM_R64_NW BOM_ROCI BOM_POCI BOM_EYE BOM_POS_METHOD BOM_PRES_METHOD NADI_LAT NADI_LON NADI_CAT NADI_WIND NADI_PRES WELLINGTON_LAT WELLINGTON_LON WELLINGTON_WIND WELLINGTON_PRES DS824_LAT DS824_LON DS824_STAGE DS824_WIND DS824_PRES TD9636_LAT TD9636_LON TD9636_STAGE TD9636_WIND TD9636_PRES TD9635_LAT TD9635_LON TD9635_WIND TD9635_PRES TD9635_ROCI NEUMANN_LAT NEUMANN_LON NEUMANN_CLASS NEUMANN_WIND NEUMANN_PRES MLC_LAT MLC_LON MLC_CLASS MLC_WIND MLC_PRES USA_GUST BOM_GUST BOM_GUST_PER REUNION_GUST REUNION_GUST_PER USA_SEAHGT USA_SEARAD_NE USA_SEARAD_SE USA_SEARAD_SW USA_SEARAD_NW STORM_SPEED STORM_DIR
1937220N14132 1937 30 WP MM NOT_NAMED 1937-08-08 10:00:00 NR 14.4000 131.500 main 694 692 __________O___ -1 14.4000 131.500 7 8 339
1937220N14132 1937 30 WP MM NOT_NAMED 1937-08-08 12:00:00 NR 14.6567 131.404 main 697 691 __________P___ -1 14.6567 131.404 7 8 340
1937220N14132 1937 30 WP MM NOT_NAMED 1937-08-08 15:00:00 NR 15.0267 131.265 main 701 696 __________P___ -1 15.0267 131.265 7 8 340
1937220N14132 1937 30 WP MM NOT_NAMED 1937-08-08 18:00:00 NR 15.3581 131.138 main 703 703 __________P___ -1 15.3581 131.138 7 6 339
1937220N14132 1937 30 WP MM NOT_NAMED 1937-08-08 21:00:00 NR 15.6278 131.030 main 705 705 __________P___ -1 15.6278 131.030 7 6 339
1937220N14132 1937 30 WP MM NOT_NAMED 1937-08-08 22:00:00 NR 15.7000 131.000 main 711 708 __________O___ -1 15.7000 131.000 7 4 338
1937220N14132 1937 30 WP MM NOT_NAMED 1937-08-09 00:00:00 NR 15.8154 130.949 main 708 708 __________P___ -1 15.8154 130.949 7 3 336
1937220N14132 1937 30 WP MM NOT_NAMED 1937-08-09 03:00:00 NR 15.9317 130.892 main 714 714 __________P___ -1 15.9317 130.892 7 2 332
1937220N14132 1937 30 WP MM NOT_NAMED 1937-08-09 06:00:00 NR 16.0076 130.850 main 721 712 __________P___ -1 16.0076 130.850 7 2 331
1937220N14132 1937 30 WP MM NOT_NAMED 1937-08-09 09:00:00 NR 16.0744 130.813 main 719 719 __________P___ -1 16.0744 130.813 7 2 342
1937220N14132 1937 30 WP MM NOT_NAMED 1937-08-09 10:00:00 NR 16.1000 130.800 main 719 719 __________O___ -1 16.1000 130.800 7 2 343
1937220N14132 1937 30 WP MM NOT_NAMED 1937-08-09 12:00:00 NR 16.1671 130.769 main 726 717 __________P___ -1 16.1671 130.769 7 2 340
1937220N14132 1937 30 WP MM NOT_NAMED 1937-08-09 15:00:00 NR 16.2739 130.723 main 724 724 __________P___ -1 16.2739 130.723 7 2 338
1937220N14132 1937 30 WP MM NOT_NAMED 1937-08-09 18:00:00 NR 16.3963 130.674 main 731 726 __________P___ -1 16.3963 130.674 7 3 340
1937220N14132 1937 30 WP MM NOT_NAMED 1937-08-09 21:00:00 NR 16.5437 130.620 main 726 730 __________P___ -1 16.5437 130.620 7 3 340
1937220N14132 1937 30 WP MM NOT_NAMED 1937-08-09 22:00:00 NR 16.6000 130.600 main 730 730 __________O___ -1 16.6000 130.600 7 4 344
1937220N14132 1937 30 WP MM NOT_NAMED 1937-08-10 00:00:00 NR 16.7219 130.561 main 735 730 __________P___ -1 16.7219 130.561 7 4 343
1937220N14132 1937 30 WP MM NOT_NAMED 1937-08-10 03:00:00 NR 16.9299 130.496 main 735 735 __________P___ -1 16.9299 130.496 7 5 343
1937220N14132 1937 30 WP MM NOT_NAMED 1937-08-10 06:00:00 NR 17.1624 130.421 main 741 741 __________P___ -1 17.1624 130.421 7 5 342
1937220N14132 1937 30 WP MM NOT_NAMED 1937-08-10 09:00:00 NR 17.4134 130.333 main 743 743 __________P___ -1 17.4134 130.333 7 5 340
1937220N14132 1937 30 WP MM NOT_NAMED 1937-08-10 10:00:00 NR 17.5000 130.300 main 749 746 __________O___ -1 17.5000 130.300 7 5 339
1937220N14132 1937 30 WP MM NOT_NAMED 1937-08-10 12:00:00 NR 17.6614 130.233 main 752 752 __________P___ -1 17.6614 130.233 7 5 337
1937220N14132 1937 30 WP MM NOT_NAMED 1937-08-10 15:00:00 NR 17.9159 130.121 main 756 756 __________P___ -1 17.9159 130.121 7 6 337
1937220N14132 1937 30 WP MM NOT_NAMED 1937-08-10 18:00:00 NR 18.1908 129.993 main 767 766 __________P___ -1 18.1908 129.993 7 6 336
1937220N14132 1937 30 WP MM NOT_NAMED 1937-08-10 21:00:00 NR 18.4924 129.851 main 780 772 __________P___ -1 18.4924 129.851 7 7 336
1937220N14132 1937 30 WP MM NOT_NAMED 1937-08-10 22:00:00 NR 18.6000 129.800 main 780 780 __________O___ -1 18.6000 129.800 3 7 336
1937220N14132 1937 30 WP MM NOT_NAMED 1937-08-11 00:00:00 NR 18.8140 129.702 main 781 763 __________P___ -1 18.8140 129.702 3 7 337
1937220N14132 1937 30 WP MM NOT_NAMED 1937-08-11 03:00:00 NR 19.1600 129.544 main 763 755 __________P___ -1 19.1600 129.544 3 8 336
1937220N14132 1937 30 WP MM NOT_NAMED 1937-08-11 06:00:00 NR 19.5387 129.367 main 756 741 __________P___ -1 19.5387 129.367 3 9 336
1937220N14132 1937 30 WP MM NOT_NAMED 1937-08-11 09:00:00 NR 19.9533 129.171 main 746 736 __________P___ -1 19.9533 129.171 3 9 336
1937220N14132 1937 30 WP MM NOT_NAMED 1937-08-11 10:00:00 NR 20.1000 129.100 main 738 727 __________O___ -1 20.1000 129.100 4 10 336
1937220N14132 1937 30 WP MM NOT_NAMED 1937-08-11 12:00:00 NR 20.4232 128.943 main 727 722 __________P___ -1 20.4232 128.943 4 11 335
1937220N14132 1937 30 WP MM NOT_NAMED 1937-08-11 15:00:00 NR 20.9400 128.688 main 726 720 __________P___ -1 20.9400 128.688 4 12 335
1937220N14132 1937 30 WP MM NOT_NAMED 1937-08-11 18:00:00 NR 21.4617 128.427 main 725 701 __________P___ -1 21.4617 128.427 4 11 335
1937220N14132 1937 30 WP MM NOT_NAMED 1937-08-11 21:00:00 NR 21.9507 128.177 main 701 687 __________P___ -1 21.9507 128.177 4 11 335
1937220N14132 1937 30 WP MM NOT_NAMED 1937-08-11 22:00:00 NR 22.1000 128.100 main 687 668 __________O___ -1 22.1000 128.100 4 9 334
1937220N14132 1937 30 WP MM NOT_NAMED 1937-08-12 00:00:00 NR 22.3486 127.968 main 668 633 __________P___ -1 22.3486 127.968 4 8 333
1937220N14132 1937 30 WP MM NOT_NAMED 1937-08-12 03:00:00 NR 22.6772 127.790 main 633 603 __________P___ -1 22.6772 127.790 4 7 333
1937220N14132 1937 30 WP MM NOT_NAMED 1937-08-12 06:00:00 NR 22.9807 127.624 main 603 584 __________P___ -1 22.9807 127.624 4 7 333
1937220N14132 1937 30 WP MM NOT_NAMED 1937-08-12 09:00:00 NR 23.2901 127.458 main 584 571 __________P___ -1 23.2901 127.458 4 7 334
1937220N14132 1937 30 WP MM NOT_NAMED 1937-08-12 10:00:00 NR 23.4000 127.400 main 571 555 __________O___ -1 23.4000 127.400 4 8 335
1937220N14132 1937 30 WP MM NOT_NAMED 1937-08-12 12:00:00 NR 23.6653 127.265 main 555 525 __________P___ -1 23.6653 127.265 4 9 335
1937220N14132 1937 30 WP MM NOT_NAMED 1937-08-12 15:00:00 NR 24.0826 127.055 main 525 487 __________P___ -1 24.0826 127.055 4 9 335
1937220N14132 1937 30 WP MM NOT_NAMED 1937-08-12 18:00:00 NR 24.4979 126.849 main 487 473 __________P___ -1 24.4979 126.849 4 9 336
1937220N14132 1937 30 WP MM NOT_NAMED 1937-08-12 21:00:00 NR 24.8831 126.658 main 473 463 __________P___ -1 24.8831 126.658 4 8 336
1937220N14132 1937 30 WP MM NOT_NAMED 1937-08-12 22:00:00 NR 25.0000 126.600 main 463 453 __________O___ -1 25.0000 126.600 4 7 336
1937220N14132 1937 30 WP MM NOT_NAMED 1937-08-13 00:00:00 NR 25.2008 126.499 main 453 443 __________P___ -1 25.2008 126.499 4 6 336
1937220N14132 1937 30 WP MM NOT_NAMED 1937-08-13 03:00:00 NR 25.4642 126.367 main 445 428 __________P___ -1 25.4642 126.367 4 5 336
1937220N14132 1937 30 WP MM NOT_NAMED 1937-08-13 06:00:00 NR 25.6991 126.250 main 428 423 __________P___ -1 25.6991 126.250 4 5 336
1937220N14132 1937 30 WP MM NOT_NAMED 1937-08-13 09:00:00 NR 25.9240 126.138 main 423 423 __________P___ -1 25.9240 126.138 4 5 335
1937220N14132 1937 30 WP MM NOT_NAMED 1937-08-13 10:00:00 NR 26.0000 126.100 main 426 419 __________O___ -1 26.0000 126.100 4 5 335
1937220N14132 1937 30 WP MM NOT_NAMED 1937-08-13 12:00:00 NR 26.1562 126.014 main 422 416 __________P___ -1 26.1562 126.014 4 5 334
1937220N14132 1937 30 WP MM NOT_NAMED 1937-08-13 15:00:00 NR 26.3902 125.885 main 420 415 __________P___ -1 26.3902 125.885 4 5 334
1937220N14132 1937 30 WP MM NOT_NAMED 1937-08-13 18:00:00 NR 26.6351 125.759 main 420 415 __________P___ -1 26.6351 125.759 4 6 337
1937220N14132 1937 30 WP MM NOT_NAMED 1937-08-13 21:00:00 NR 26.9033 125.638 main 417 417 __________P___ -1 26.9033 125.638 4 6 339
1937220N14132 1937 30 WP MM NOT_NAMED 1937-08-13 22:00:00 NR 27.0000 125.600 main 419 402 __________O___ -1 27.0000 125.600 4 6 344
1937220N14132 1937 30 WP MM NOT_NAMED 1937-08-14 00:00:00 NR 27.2078 125.538 main 402 391 __________P___ -1 27.2078 125.538 4 7 346
1937220N14132 1937 30 WP MM NOT_NAMED 1937-08-14 03:00:00 NR 27.5446 125.451 main 391 362 __________P___ -1 27.5446 125.451 4 7 347
1937220N14132 1937 30 WP MM NOT_NAMED 1937-08-14 06:00:00 NR 27.9035 125.359 main 362 327 __________P___ -1 27.9035 125.359 4 8 346
1937220N14132 1937 30 WP MM NOT_NAMED 1937-08-14 09:00:00 NR 28.2750 125.245 main 327 323 __________P___ -1 28.2750 125.245 4 8 345
1937220N14132 1937 30 WP MM NOT_NAMED 1937-08-14 10:00:00 NR 28.4000 125.200 main 323 306 __________O___ -1 28.4000 125.200 4 8 341
1937220N14132 1937 30 WP MM NOT_NAMED 1937-08-14 12:00:00 NR 28.6502 125.096 main 306 282 __________P___ -1 28.6502 125.096 4 8 338
1937220N14132 1937 30 WP MM NOT_NAMED 1937-08-14 15:00:00 NR 29.0254 124.912 main 282 261 __________P___ -1 29.0254 124.912 4 8 335
1937220N14132 1937 30 WP MM NOT_NAMED 1937-08-14 18:00:00 NR 29.4004 124.702 main 262 248 __________P___ -1 29.4004 124.702 4 8 333
1937220N14132 1937 30 WP MM NOT_NAMED 1937-08-14 21:00:00 NR 29.7752 124.477 main 250 240 __________P___ -1 29.7752 124.477 4 8 332
1937220N14132 1937 30 WP MM NOT_NAMED 1937-08-14 22:00:00 NR 29.9000 124.400 main 241 __________O___ -1 29.9000 124.400 7 9 331

Digital Typhoon Data and Search

About IBTrACS Database

This database is a web-friendly format of International Best Track Archive for Climate Stewardship (IBTrACS), a global best track data archive curated by NOAA dating back to 1842.

Updated: 2021-10-08